Time;durP1;ratioP1;P1;durP2;ratioP2;P2;SDS_P1;SDS_P2;PMS_P1;PMS_P2;Temp;Humidity;BMP_temperature;BMP_pressure;BME280_temperature;BME280_humidity;BME280_pressure;Samples;Min_cycle;Max_cycle;Signal;HPM_P1;HPM_P2
2021/05/06 00:08:20;;;;;;;8.47;7.10;;;;;;;;;;5060473;28;20223;-71
2021/05/06 00:34:34;;;;;;;6.70;6.00;;;;;;;;;;5059408;28;20208;-73
2021/05/06 00:36:59;;;;;;;7.73;7.03;;;;;;;;;;5055771;28;20193;-72
2021/05/06 00:39:29;;;;;;;8.53;6.40;;;;;;;;;;5063370;28;20573;-73
2021/05/06 00:42:06;;;;;;;7.00;6.30;;;;;;;;;;5063192;28;20286;-72
2021/05/06 01:06:08;;;;;;;10.17;8.10;;;;;;;;;;5065738;28;20188;-72
2021/05/06 01:08:40;;;;;;;9.73;8.70;;;;;;;;;;5055735;28;20174;-72
2021/05/06 01:13:31;;;;;;;11.30;8.77;;;;;;;;;;5064779;28;20164;-72
2021/05/06 01:15:57;;;;;;;9.93;8.93;;;;;;;;;;5053639;28;20264;-73
2021/05/06 01:18:22;;;;;;;9.33;8.20;;;;;;;;;;5065737;28;20312;-72
2021/05/06 01:20:51;;;;;;;11.23;9.70;;;;;;;;;;5057112;28;20256;-73
2021/05/06 01:23:17;;;;;;;10.67;9.63;;;;;;;;;;5061326;28;20278;-73
2021/05/06 01:25:49;;;;;;;12.33;9.43;;;;;;;;;;5065470;28;20568;-72
2021/05/06 01:28:17;;;;;;;11.33;10.03;;;;;;;;;;5065303;28;20173;-72
2021/05/06 01:30:46;;;;;;;13.07;9.97;;;;;;;;;;5067733;28;20176;-72
2021/05/06 01:34:04;;;;;;;11.97;10.63;;;;;;;;;;5056471;28;20704;-72
2021/05/06 01:36:06;;;;;;;14.67;11.37;;;;;;;;;;5056517;28;20235;-72
2021/05/06 01:46:35;;;;;;;13.10;10.50;;;;;;;;;;5062174;28;20262;-72
2021/05/06 01:49:27;;;;;;;11.93;10.77;;;;;;;;;;5057605;28;20181;-72
2021/05/06 01:59:59;;;;;;;13.20;11.17;;;;;;;;;;5055148;28;20251;-72
2021/05/06 02:02:24;;;;;;;12.47;11.10;;;;;;;;;;5058217;28;20255;-73
2021/05/06 02:04:50;;;;;;;16.97;12.30;;;;;;;;;;5059140;28;20651;-73
2021/05/06 02:07:15;;;;;;;15.13;12.33;;;;;;;;;;5062102;28;20253;-72
2021/05/06 02:09:40;;;;;;;15.27;12.50;;;;;;;;;;5060718;28;20188;-71
2021/05/06 02:12:08;;;;;;;15.43;12.60;;;;;;;;;;5062243;28;20270;-72
2021/05/06 02:14:33;;;;;;;15.57;13.07;;;;;;;;;;5058822;28;20638;-72
2021/05/06 02:16:58;;;;;;;15.27;12.67;;;;;;;;;;5057710;28;20264;-73
2021/05/06 02:19:31;;;;;;;17.50;13.10;;;;;;;;;;5060902;28;20268;-73
2021/05/06 02:21:56;;;;;;;18.67;14.10;;;;;;;;;;5059972;28;20206;-72
2021/05/06 02:24:22;;;;;;;17.60;13.27;;;;;;;;;;5053984;28;20227;-72
2021/05/06 02:26:47;;;;;;;16.73;13.30;;;;;;;;;;5065355;28;20551;-72
2021/05/06 02:29:12;;;;;;;15.17;12.23;;;;;;;;;;5070965;28;20223;-72
2021/05/06 02:31:37;;;;;;;17.43;13.77;;;;;;;;;;5058141;28;20284;-72
2021/05/06 02:34:02;;;;;;;20.77;14.60;;;;;;;;;;5063100;28;20258;-72
2021/05/06 02:36:28;;;;;;;18.40;13.87;;;;;;;;;;5054153;28;20227;-73
2021/05/06 02:38:53;;;;;;;17.67;15.00;;;;;;;;;;5063528;28;20177;-72
2021/05/06 02:41:18;;;;;;;18.80;14.80;;;;;;;;;;5063499;28;20583;-73
2021/05/06 02:43:43;;;;;;;18.93;14.43;;;;;;;;;;5065085;28;20200;-73
2021/05/06 02:46:08;;;;;;;19.67;14.93;;;;;;;;;;5063006;28;20234;-72
2021/05/06 02:48:33;;;;;;;19.93;15.50;;;;;;;;;;5064841;28;20637;-72
2021/05/06 02:51:01;;;;;;;20.73;15.20;;;;;;;;;;5059632;28;20182;-73
2021/05/06 02:53:31;;;;;;;18.63;14.93;;;;;;;;;;5063997;28;20177;-72
2021/05/06 02:56:15;;;;;;;20.03;15.27;;;;;;;;;;5058696;28;20578;-73
2021/05/06 03:04:00;;;;;;;21.10;15.57;;;;;;;;;;5062769;28;20245;-72
2021/05/06 03:06:28;;;;;;;22.50;17.93;;;;;;;;;;5062870;28;20598;-72
2021/05/06 03:09:00;;;;;;;25.07;17.90;;;;;;;;;;5067783;28;20181;-72
2021/05/06 03:14:26;;;;;;;23.60;17.17;;;;;;;;;;5063559;28;20215;-72
2021/05/06 03:25:08;;;;;;;28.07;19.33;;;;;;;;;;5062705;28;20212;-73
2021/05/06 03:27:37;;;;;;;27.17;18.97;;;;;;;;;;5065769;28;20184;-70
2021/05/06 03:32:35;;;;;;;24.33;16.73;;;;;;;;;;5063365;28;20200;-72
2021/05/06 03:35:13;;;;;;;24.93;17.70;;;;;;;;;;5060293;28;20613;-73
2021/05/06 03:43:46;;;;;;;27.40;18.17;;;;;;;;;;5062191;28;20240;-72
2021/05/06 04:13:34;;;;;;;32.13;20.93;;;;;;;;;;5053776;28;20728;-72
2021/05/06 04:18:59;;;;;;;32.83;22.33;;;;;;;;;;5045248;28;20200;-73
2021/05/06 04:26:59;;;;;;;40.67;25.30;;;;;;;;;;5052194;28;20277;-72
2021/05/06 04:37:27;;;;;;;151.60;35.97;;;;;;;;;;5055844;28;20247;-72
2021/05/06 04:39:56;;;;;;;142.33;36.40;;;;;;;;;;5055156;28;20253;-72
2021/05/06 05:03:37;;;;;;;54.50;31.80;;;;;;;;;;5055407;28;20304;-72
2021/05/06 05:06:03;;;;;;;58.87;32.37;;;;;;;;;;5067137;28;20181;-71
2021/05/06 05:08:34;;;;;;;51.90;33.50;;;;;;;;;;5061786;28;21104;-72
2021/05/06 05:18:49;;;;;;;52.50;33.40;;;;;;;;;;5067396;28;20564;-71
2021/05/06 05:23:21;;;;;;;50.70;32.60;;;;;;;;;;5056852;28;20701;-72
2021/05/06 05:24:05;;;;;;;45.73;29.90;;;;;;;;;;5058480;28;20601;-73
2021/05/06 05:26:30;;;;;;;47.70;31.00;;;;;;;;;;5063176;28;20234;-72
2021/05/06 05:28:55;;;;;;;45.43;28.60;;;;;;;;;;5062116;28;20173;-72
2021/05/06 05:31:21;;;;;;;45.13;30.73;;;;;;;;;;5061958;28;20562;-71
2021/05/06 05:33:53;;;;;;;46.43;30.93;;;;;;;;;;5061845;28;20201;-72
2021/05/06 05:36:20;;;;;;;47.67;31.63;;;;;;;;;;5058535;28;20599;-72
2021/05/06 05:41:59;;;;;;;47.93;33.37;;;;;;;;;;5055710;28;20699;-71
2021/05/06 05:55:22;;;;;;;38.57;28.53;;;;;;;;;;5060059;28;20189;-72
2021/05/06 05:57:48;;;;;;;40.57;30.10;;;;;;;;;;5061901;28;20632;-72
2021/05/06 06:00:13;;;;;;;39.93;28.30;;;;;;;;;;5059643;28;20193;-71
2021/05/06 06:02:38;;;;;;;30.33;22.30;;;;;;;;;;5060939;28;20651;-72
2021/05/06 06:05:04;;;;;;;27.97;20.87;;;;;;;;;;5060581;28;20608;-72
2021/05/06 06:07:29;;;;;;;22.13;18.37;;;;;;;;;;5052662;28;20187;-72
2021/05/06 06:09:56;;;;;;;15.43;13.80;;;;;;;;;;5059233;28;20186;-72
2021/05/06 06:12:21;;;;;;;15.67;12.83;;;;;;;;;;5062267;28;20193;-70
2021/05/06 06:17:12;;;;;;;14.33;12.40;;;;;;;;;;5066360;28;20271;-70
2021/05/06 06:19:38;;;;;;;16.43;12.00;;;;;;;;;;5062600;28;21706;-71
2021/05/06 06:22:08;;;;;;;14.10;12.70;;;;;;;;;;5051804;28;20209;-71
2021/05/06 06:24:33;;;;;;;14.67;12.73;;;;;;;;;;5053111;28;20638;-72
2021/05/06 06:26:59;;;;;;;13.10;11.03;;;;;;;;;;5052525;28;20184;-69
2021/05/06 06:29:30;;;;;;;11.87;10.00;;;;;;;;;;5055345;28;20197;-72
2021/05/06 06:31:56;;;;;;;11.97;10.70;;;;;;;;;;5053671;28;20196;-71
2021/05/06 06:34:21;;;;;;;9.90;8.73;;;;;;;;;;5053771;28;20190;-71
2021/05/06 06:36:46;;;;;;;9.17;8.23;;;;;;;;;;5054940;28;20216;-71
2021/05/06 06:39:12;;;;;;;9.50;7.93;;;;;;;;;;5055172;28;20300;-71
2021/05/06 06:41:38;;;;;;;11.80;9.47;;;;;;;;;;5050451;28;20681;-70
2021/05/06 06:44:04;;;;;;;12.10;8.17;;;;;;;;;;5050498;28;20213;-70
2021/05/06 06:46:29;;;;;;;9.10;7.67;;;;;;;;;;5054830;28;20181;-70
2021/05/06 06:48:54;;;;;;;8.47;7.63;;;;;;;;;;5050660;28;20189;-71
2021/05/06 06:51:19;;;;;;;9.90;8.07;;;;;;;;;;5054481;28;20212;-71
2021/05/06 06:53:44;;;;;;;9.07;8.10;;;;;;;;;;5050123;28;20200;-71
2021/05/06 06:56:10;;;;;;;10.37;8.23;;;;;;;;;;5052112;28;20178;-71
2021/05/06 06:58:35;;;;;;;10.27;9.27;;;;;;;;;;5060746;28;20703;-71
2021/05/06 07:01:00;;;;;;;11.57;9.50;;;;;;;;;;5050890;28;20960;-70
2021/05/06 07:03:26;;;;;;;10.60;8.90;;;;;;;;;;5050314;28;20193;-70
2021/05/06 07:05:52;;;;;;;11.83;9.03;;;;;;;;;;5051733;28;20765;-71
2021/05/06 07:08:19;;;;;;;8.93;8.03;;;;;;;;;;5055116;28;20192;-71
2021/05/06 07:10:45;;;;;;;11.00;8.47;;;;;;;;;;5053891;28;20176;-72
2021/05/06 07:13:11;;;;;;;10.77;8.80;;;;;;;;;;5053935;28;20754;-71
2021/05/06 07:15:36;;;;;;;10.00;9.00;;;;;;;;;;5049950;28;20197;-71
2021/05/06 07:18:01;;;;;;;9.10;8.20;;;;;;;;;;5048999;28;20677;-71
2021/05/06 07:20:26;;;;;;;10.30;8.57;;;;;;;;;;5051227;28;20650;-71
2021/05/06 07:22:52;;;;;;;8.60;7.70;;;;;;;;;;5053715;28;20216;-70
2021/05/06 07:25:17;;;;;;;11.10;8.93;;;;;;;;;;5050203;28;20268;-70
2021/05/06 07:27:42;;;;;;;9.60;8.63;;;;;;;;;;5054298;28;20186;-70
2021/05/06 07:30:08;;;;;;;10.13;8.70;;;;;;;;;;5051916;28;20185;-69
2021/05/06 07:32:33;;;;;;;9.67;8.57;;;;;;;;;;5052635;28;20204;-71
2021/05/06 07:34:58;;;;;;;11.30;8.80;;;;;;;;;;5051701;28;20184;-70
2021/05/06 07:37:24;;;;;;;10.37;9.33;;;;;;;;;;5057269;28;20277;-71
2021/05/06 07:39:49;;;;;;;9.23;8.33;;;;;;;;;;5056114;28;20246;-70
2021/05/06 07:42:14;;;;;;;10.47;8.97;;;;;;;;;;5057929;28;20201;-71
2021/05/06 07:44:39;;;;;;;11.07;9.97;;;;;;;;;;5056786;28;20173;-70
2021/05/06 07:47:11;;;;;;;13.33;10.23;;;;;;;;;;5059002;28;20182;-70
2021/05/06 07:49:36;;;;;;;10.80;9.53;;;;;;;;;;5060369;28;20529;-70
2021/05/06 07:52:02;;;;;;;11.43;9.90;;;;;;;;;;5057311;28;20207;-69
2021/05/06 07:54:27;;;;;;;11.67;10.47;;;;;;;;;;5064456;28;20181;-71
2021/05/06 07:56:52;;;;;;;12.00;10.43;;;;;;;;;;5064203;28;20170;-70
2021/05/06 07:59:18;;;;;;;12.90;11.63;;;;;;;;;;5059056;28;20284;-70
2021/05/06 08:01:43;;;;;;;13.90;12.43;;;;;;;;;;5056578;28;20209;-70
2021/05/06 08:04:08;;;;;;;15.87;13.97;;;;;;;;;;5062161;28;20202;-71
2021/05/06 08:06:33;;;;;;;15.00;13.60;;;;;;;;;;5062735;28;20518;-70
2021/05/06 08:08:59;;;;;;;15.70;14.13;;;;;;;;;;5059066;28;20178;-70
2021/05/06 08:11:25;;;;;;;15.57;13.93;;;;;;;;;;5061153;28;20240;-71
2021/05/06 08:13:50;;;;;;;13.27;11.87;;;;;;;;;;5057044;28;20173;-71
2021/05/06 08:16:15;;;;;;;13.43;12.23;;;;;;;;;;5064810;28;20170;-70
2021/05/06 08:18:41;;;;;;;13.80;12.47;;;;;;;;;;5065416;28;20240;-70
2021/05/06 08:21:06;;;;;;;12.70;11.40;;;;;;;;;;5061941;28;20557;-71
2021/05/06 08:23:31;;;;;;;14.10;12.40;;;;;;;;;;5061040;28;20690;-69
2021/05/06 08:25:57;;;;;;;13.93;12.50;;;;;;;;;;5066512;28;20188;-71
2021/05/06 08:28:22;;;;;;;12.80;11.60;;;;;;;;;;5059590;28;20170;-69
2021/05/06 08:30:48;;;;;;;10.77;8.60;;;;;;;;;;5053334;28;20169;-71
2021/05/06 08:33:13;;;;;;;10.83;8.83;;;;;;;;;;5063716;28;20589;-71
2021/05/06 08:35:39;;;;;;;12.70;11.50;;;;;;;;;;5055247;28;20542;-70
2021/05/06 08:38:04;;;;;;;13.97;12.57;;;;;;;;;;5060524;28;20282;-71
2021/05/06 08:40:29;;;;;;;12.90;11.60;;;;;;;;;;5051129;28;20177;-71
2021/05/06 08:42:55;;;;;;;12.33;11.13;;;;;;;;;;5054994;28;20217;-71
2021/05/06 08:45:23;;;;;;;12.00;10.80;;;;;;;;;;5060110;28;20169;-71
2021/05/06 08:47:50;;;;;;;13.20;10.32;;;;;;;;;;5056019;28;20201;-70
2021/05/06 08:50:16;;;;;;;10.98;9.88;;;;;;;;;;5057544;28;20733;-69
2021/05/06 08:52:41;;;;;;;11.20;9.55;;;;;;;;;;5054733;28;20240;-71
2021/05/06 08:55:07;;;;;;;11.70;8.98;;;;;;;;;;5053382;28;20181;-71
2021/05/06 08:57:32;;;;;;;10.27;9.35;;;;;;;;;;5058387;28;20701;-73
2021/05/06 08:59:57;;;;;;;9.07;8.18;;;;;;;;;;5058715;28;20176;-71
2021/05/06 09:02:22;;;;;;;9.10;8.20;;;;;;;;;;5053580;28;20577;-70
2021/05/06 09:04:47;;;;;;;8.70;7.88;;;;;;;;;;5051148;28;20181;-70
2021/05/06 09:07:13;;;;;;;9.70;8.80;;;;;;;;;;5058330;28;20200;-71
2021/05/06 09:09:42;;;;;;;9.18;8.27;;;;;;;;;;5057220;28;20903;-68
2021/05/06 09:12:07;;;;;;;10.23;8.32;;;;;;;;;;5054471;28;20212;-70
2021/05/06 09:14:38;;;;;;;8.75;7.82;;;;;;;;;;5064396;28;20177;-70
2021/05/06 09:17:05;;;;;;;8.45;7.65;;;;;;;;;;5058069;28;20177;-70
2021/05/06 09:19:30;;;;;;;8.68;7.88;;;;;;;;;;5053448;28;20208;-71
2021/05/06 09:21:56;;;;;;;7.97;7.28;;;;;;;;;;5062518;28;20261;-70
2021/05/06 09:24:23;;;;;;;8.45;7.65;;;;;;;;;;5056729;28;20216;-71
2021/05/06 09:26:51;;;;;;;7.95;7.25;;;;;;;;;;5063000;28;20659;-71
2021/05/06 09:29:32;;;;;;;7.57;6.78;;;;;;;;;;5056394;28;20178;-70
2021/05/06 09:32:18;;;;;;;7.65;6.90;;;;;;;;;;5061065;28;21348;-70
2021/05/06 09:34:44;;;;;;;9.25;8.13;;;;;;;;;;5059494;28;20176;-70
2021/05/06 09:37:20;;;;;;;9.52;8.57;;;;;;;;;;5058319;28;20185;-70
2021/05/06 09:39:47;;;;;;;10.30;8.90;;;;;;;;;;5052275;28;20184;-70
2021/05/06 09:42:12;;;;;;;9.82;8.88;;;;;;;;;;5058380;28;20227;-70
2021/05/06 09:44:50;;;;;;;10.13;9.13;;;;;;;;;;5053991;28;20185;-70
2021/05/06 09:47:16;;;;;;;11.27;9.18;;;;;;;;;;5056179;28;20235;-71
2021/05/06 09:49:41;;;;;;;10.20;9.23;;;;;;;;;;5055601;28;20752;-71
2021/05/06 09:52:06;;;;;;;10.07;9.15;;;;;;;;;;5055092;28;20204;-70
2021/05/06 09:54:31;;;;;;;10.25;8.88;;;;;;;;;;5062015;28;20177;-71
2021/05/06 09:57:01;;;;;;;9.32;8.18;;;;;;;;;;5056810;28;20193;-71
2021/05/06 09:59:28;;;;;;;10.35;9.00;;;;;;;;;;5064160;28;20249;-71
2021/05/06 10:01:53;;;;;;;8.70;7.18;;;;;;;;;;5054121;28;20231;-71
2021/05/06 10:04:19;;;;;;;6.88;6.28;;;;;;;;;;5054667;28;20208;-70
2021/05/06 10:07:07;;;;;;;8.48;7.63;;;;;;;;;;5054764;28;21846;-71
2021/05/06 10:09:32;;;;;;;8.10;7.40;;;;;;;;;;5050815;28;20184;-71
2021/05/06 10:11:58;;;;;;;7.82;7.13;;;;;;;;;;5050136;28;20198;-70
2021/05/06 10:14:23;;;;;;;7.65;6.85;;;;;;;;;;5051296;28;20176;-71
2021/05/06 10:16:49;;;;;;;7.55;6.82;;;;;;;;;;5052755;28;20184;-71
2021/05/06 10:19:16;;;;;;;4.82;4.43;;;;;;;;;;5052441;28;20188;-71
2021/05/06 10:21:42;;;;;;;4.60;4.03;;;;;;;;;;5056405;28;20193;-70
2021/05/06 10:24:07;;;;;;;5.18;4.45;;;;;;;;;;5050037;28;20216;-71
2021/05/06 10:26:32;;;;;;;3.72;3.42;;;;;;;;;;5052071;28;20215;-70
2021/05/06 10:28:58;;;;;;;4.53;3.65;;;;;;;;;;5055522;28;20185;-71
2021/05/06 10:31:23;;;;;;;4.70;4.30;;;;;;;;;;5060538;28;20673;-71
2021/05/06 10:33:50;;;;;;;3.97;3.67;;;;;;;;;;5060236;28;20181;-71
2021/05/06 10:36:16;;;;;;;4.38;3.80;;;;;;;;;;5056050;28;20189;-70
2021/05/06 10:38:42;;;;;;;4.85;4.10;;;;;;;;;;5063763;28;20269;-70
2021/05/06 10:41:25;;;;;;;4.72;4.10;;;;;;;;;;5062608;28;20193;-70
2021/05/06 10:43:57;;;;;;;4.25;3.80;;;;;;;;;;5061317;28;20203;-71
2021/05/06 10:46:22;;;;;;;4.87;3.60;;;;;;;;;;5058234;28;20177;-70
2021/05/06 10:48:54;;;;;;;4.00;3.27;;;;;;;;;;5056685;28;20196;-69
2021/05/06 10:51:37;;;;;;;6.10;3.13;;;;;;;;;;5061607;28;20204;-70
2021/05/06 10:54:23;;;;;;;2.67;2.47;;;;;;;;;;5061362;28;20172;-71
2021/05/06 10:56:48;;;;;;;2.40;2.20;;;;;;;;;;5051374;28;20273;-71
2021/05/06 10:59:20;;;;;;;3.67;2.60;;;;;;;;;;5063726;28;20265;-70
2021/05/06 11:01:46;;;;;;;2.80;2.60;;;;;;;;;;5049941;28;20224;-69
2021/05/06 11:04:11;;;;;;;3.30;2.97;;;;;;;;;;5053537;28;20701;-70
2021/05/06 11:06:37;;;;;;;3.13;2.70;;;;;;;;;;5047663;28;20174;-70
2021/05/06 11:09:23;;;;;;;2.97;2.67;;;;;;;;;;5049820;28;20675;-71
2021/05/06 11:12:07;;;;;;;3.70;2.77;;;;;;;;;;5049335;28;20208;-70
2021/05/06 11:14:32;;;;;;;2.17;2.00;;;;;;;;;;5053088;28;20452;-70
2021/05/06 11:17:16;;;;;;;2.07;1.90;;;;;;;;;;5050111;28;20185;-70
2021/05/06 11:19:41;;;;;;;2.40;2.20;;;;;;;;;;5048181;28;20185;-71
2021/05/06 11:22:06;;;;;;;3.20;2.07;;;;;;;;;;5048991;28;20842;-71
2021/05/06 11:24:31;;;;;;;2.63;2.43;;;;;;;;;;5046803;28;20208;-70
2021/05/06 11:27:09;;;;;;;2.27;2.07;;;;;;;;;;5046131;28;20243;-71
2021/05/06 11:29:36;;;;;;;2.50;2.30;;;;;;;;;;5049705;28;20205;-71
2021/05/06 11:32:01;;;;;;;2.90;2.60;;;;;;;;;;5051760;28;20228;-71
2021/05/06 11:34:29;;;;;;;4.87;3.20;;;;;;;;;;5057506;28;20609;-71
2021/05/06 11:37:05;;;;;;;3.90;3.47;;;;;;;;;;5055099;28;20196;-71
2021/05/06 11:39:31;;;;;;;4.10;3.60;;;;;;;;;;5055169;28;20250;-71
2021/05/06 11:41:56;;;;;;;3.67;3.37;;;;;;;;;;5061301;28;20721;-70
2021/05/06 11:44:21;;;;;;;4.37;3.47;;;;;;;;;;5050133;28;20279;-70
2021/05/06 11:46:46;;;;;;;3.80;3.27;;;;;;;;;;5059087;28;20176;-70
2021/05/06 11:49:14;;;;;;;4.80;3.57;;;;;;;;;;5057824;28;20180;-71
2021/05/06 11:51:43;;;;;;;4.07;3.30;;;;;;;;;;5056329;28;20218;-70
2021/05/06 11:54:19;;;;;;;4.70;3.77;;;;;;;;;;5055173;28;20723;-71
2021/05/06 11:56:54;;;;;;;5.10;3.20;;;;;;;;;;5050436;28;20189;-70
2021/05/06 11:59:21;;;;;;;4.37;3.83;;;;;;;;;;5058804;28;20182;-71
2021/05/06 12:01:46;;;;;;;3.10;2.80;;;;;;;;;;5051452;28;20201;-70
2021/05/06 12:04:22;;;;;;;5.00;3.40;;;;;;;;;;5052422;28;20330;-71
2021/05/06 12:06:47;;;;;;;4.67;3.80;;;;;;;;;;5053308;28;20211;-71
2021/05/06 12:09:20;;;;;;;4.87;3.83;;;;;;;;;;5058558;28;20673;-70
2021/05/06 12:11:45;;;;;;;5.57;4.00;;;;;;;;;;5051804;28;20212;-70
2021/05/06 12:14:10;;;;;;;5.87;4.57;;;;;;;;;;5058086;28;20174;-71
2021/05/06 12:16:36;;;;;;;4.20;3.70;;;;;;;;;;5068007;28;20173;-71
2021/05/06 12:19:09;;;;;;;4.57;3.87;;;;;;;;;;5062854;28;20219;-71
2021/05/06 12:21:37;;;;;;;3.47;3.13;;;;;;;;;;5059482;28;20223;-71
2021/05/06 12:24:04;;;;;;;3.77;3.10;;;;;;;;;;5055718;28;20211;-71
2021/05/06 12:26:29;;;;;;;3.93;3.30;;;;;;;;;;5064470;28;20260;-72
2021/05/06 12:28:54;;;;;;;3.80;3.50;;;;;;;;;;5057487;28;20320;-71
2021/05/06 12:31:20;;;;;;;4.67;3.03;;;;;;;;;;5059543;28;20303;-72
2021/05/06 12:33:45;;;;;;;7.60;3.60;;;;;;;;;;5061220;28;20733;-72
2021/05/06 12:36:12;;;;;;;3.47;3.17;;;;;;;;;;5057617;28;20658;-72
2021/05/06 12:38:37;;;;;;;3.67;2.78;;;;;;;;;;5062674;28;20184;-71
2021/05/06 12:41:09;;;;;;;2.92;2.72;;;;;;;;;;5067311;28;20263;-71
2021/05/06 12:43:37;;;;;;;4.03;3.72;;;;;;;;;;5057170;28;20263;-71
2021/05/06 12:46:03;;;;;;;3.88;3.25;;;;;;;;;;5057552;28;20178;-71
2021/05/06 12:48:41;;;;;;;3.83;3.42;;;;;;;;;;5054828;28;20184;-72
2021/05/06 12:51:07;;;;;;;3.30;3.00;;;;;;;;;;5058333;28;20177;-70
2021/05/06 12:53:32;;;;;;;3.92;3.40;;;;;;;;;;5056852;28;20177;-71
2021/05/06 12:55:58;;;;;;;4.40;3.13;;;;;;;;;;5058997;28;20199;-71
2021/05/06 12:58:27;;;;;;;4.07;3.55;;;;;;;;;;5059073;28;20655;-71
2021/05/06 13:00:53;;;;;;;3.42;3.13;;;;;;;;;;5055147;28;20601;-70
2021/05/06 13:03:26;;;;;;;2.90;2.70;;;;;;;;;;5055177;28;20259;-70
2021/05/06 13:05:51;;;;;;;3.70;2.80;;;;;;;;;;5050579;28;20184;-71
2021/05/06 13:08:17;;;;;;;5.05;3.05;;;;;;;;;;5052235;28;20181;-71
2021/05/06 13:10:44;;;;;;;4.38;3.05;;;;;;;;;;5050841;28;20219;-71
2021/05/06 13:13:10;;;;;;;3.83;3.20;;;;;;;;;;5052019;28;20199;-69
2021/05/06 13:15:46;;;;;;;3.13;2.83;;;;;;;;;;5052171;28;20181;-70
2021/05/06 13:18:13;;;;;;;3.08;2.78;;;;;;;;;;5055841;28;20188;-72
2021/05/06 13:20:38;;;;;;;3.30;2.72;;;;;;;;;;5056793;28;20264;-71
2021/05/06 13:23:03;;;;;;;2.78;2.53;;;;;;;;;;5053045;28;20212;-71
2021/05/06 13:25:38;;;;;;;4.47;2.75;;;;;;;;;;5069743;28;20631;-70
2021/05/06 13:28:03;;;;;;;3.50;3.20;;;;;;;;;;5058263;28;20209;-71
2021/05/06 13:30:32;;;;;;;4.57;2.80;;;;;;;;;;5060705;28;20228;-71
2021/05/06 13:33:10;;;;;;;3.65;2.60;;;;;;;;;;5058158;28;20238;-70
2021/05/06 13:35:36;;;;;;;2.88;2.67;;;;;;;;;;5061332;28;20176;-71
2021/05/06 13:38:01;;;;;;;3.40;2.85;;;;;;;;;;5057943;28;20286;-71
2021/05/06 13:40:26;;;;;;;4.68;3.05;;;;;;;;;;5057161;28;20226;-71
2021/05/06 13:42:51;;;;;;;3.20;2.90;;;;;;;;;;5067228;28;20247;-71
2021/05/06 13:45:16;;;;;;;2.92;2.72;;;;;;;;;;5069335;28;20926;-70
2021/05/06 13:47:47;;;;;;;4.07;3.05;;;;;;;;;;5065317;28;20209;-71
2021/05/06 13:50:12;;;;;;;3.33;3.00;;;;;;;;;;5058317;28;20170;-70
2021/05/06 13:52:38;;;;;;;4.95;2.50;;;;;;;;;;5057299;28;20577;-71
2021/05/06 13:55:03;;;;;;;5.57;3.07;;;;;;;;;;5064881;28;20173;-70
2021/05/06 13:57:31;;;;;;;3.72;3.20;;;;;;;;;;5062962;28;20419;-70
2021/05/06 13:59:56;;;;;;;3.30;2.95;;;;;;;;;;5062172;28;20204;-70
2021/05/06 14:02:22;;;;;;;3.50;3.20;;;;;;;;;;5065725;28;20239;-71
2021/05/06 14:04:48;;;;;;;3.53;3.10;;;;;;;;;;5067572;28;20417;-70
2021/05/06 14:07:13;;;;;;;4.15;3.20;;;;;;;;;;5063734;28;20173;-70
2021/05/06 14:09:38;;;;;;;3.58;3.25;;;;;;;;;;5059707;28;20180;-71
2021/05/06 14:12:03;;;;;;;3.37;2.97;;;;;;;;;;5051442;28;20197;-70
2021/05/06 14:14:29;;;;;;;4.40;3.28;;;;;;;;;;5053958;28;20513;-71
2021/05/06 14:16:54;;;;;;;3.67;3.37;;;;;;;;;;5060224;28;20643;-70
2021/05/06 14:19:20;;;;;;;6.37;3.37;;;;;;;;;;5061763;28;20422;-71
2021/05/06 14:21:50;;;;;;;4.63;3.58;;;;;;;;;;5065103;28;21014;-71
2021/05/06 14:24:16;;;;;;;3.67;3.35;;;;;;;;;;5063783;28;20211;-71
2021/05/06 14:26:44;;;;;;;5.38;3.60;;;;;;;;;;5051625;28;20177;-71
2021/05/06 14:29:10;;;;;;;4.03;3.15;;;;;;;;;;5063709;28;20211;-71
2021/05/06 14:31:35;;;;;;;6.38;2.97;;;;;;;;;;5061108;28;20197;-70
2021/05/06 14:34:00;;;;;;;3.00;2.80;;;;;;;;;;5063895;28;20545;-71
2021/05/06 14:36:25;;;;;;;5.15;3.00;;;;;;;;;;5064788;28;20227;-70
2021/05/06 14:38:50;;;;;;;3.65;3.35;;;;;;;;;;5063699;28;20549;-71
2021/05/06 14:41:16;;;;;;;3.50;3.20;;;;;;;;;;5064078;28;20209;-71
2021/05/06 14:43:41;;;;;;;3.30;3.05;;;;;;;;;;5059852;28;20193;-70
2021/05/06 14:46:06;;;;;;;4.50;2.73;;;;;;;;;;5068764;28;20172;-71
2021/05/06 14:48:32;;;;;;;2.85;2.65;;;;;;;;;;5069967;28;20403;-71
2021/05/06 14:50:57;;;;;;;3.38;2.92;;;;;;;;;;5070214;28;20211;-71
2021/05/06 14:53:22;;;;;;;3.83;2.80;;;;;;;;;;5053065;28;20181;-71
2021/05/06 14:55:48;;;;;;;4.63;3.08;;;;;;;;;;5056902;28;20583;-71
2021/05/06 14:58:14;;;;;;;4.18;3.03;;;;;;;;;;5065192;28;20184;-71
2021/05/06 15:00:39;;;;;;;3.65;2.47;;;;;;;;;;5054928;28;20213;-71
2021/05/06 15:03:04;;;;;;;4.22;2.83;;;;;;;;;;5059801;28;20212;-72
2021/05/06 15:05:30;;;;;;;4.07;3.03;;;;;;;;;;5061287;28;20173;-71
2021/05/06 15:07:56;;;;;;;3.08;2.50;;;;;;;;;;5060750;28;20174;-70
2021/05/06 15:10:21;;;;;;;3.20;2.80;;;;;;;;;;5059807;28;20450;-71
2021/05/06 15:12:47;;;;;;;5.55;2.65;;;;;;;;;;5060505;28;20204;-70
2021/05/06 15:15:13;;;;;;;3.30;2.70;;;;;;;;;;5055908;28;20239;-71
2021/05/06 15:17:38;;;;;;;3.92;3.03;;;;;;;;;;5055914;28;20189;-70
2021/05/06 15:20:04;;;;;;;3.83;2.83;;;;;;;;;;5063060;28;20617;-71
2021/05/06 15:22:30;;;;;;;4.68;3.10;;;;;;;;;;5063698;28;20285;-71
2021/05/06 15:24:55;;;;;;;5.93;3.13;;;;;;;;;;5058068;28;20567;-70
2021/05/06 15:27:20;;;;;;;5.72;3.70;;;;;;;;;;5057509;28;20180;-71
2021/05/06 15:29:45;;;;;;;3.10;2.63;;;;;;;;;;5060742;28;20252;-70
2021/05/06 15:32:11;;;;;;;5.43;3.45;;;;;;;;;;5064014;28;20650;-70
2021/05/06 15:34:36;;;;;;;3.35;3.05;;;;;;;;;;5061721;28;20173;-70
2021/05/06 15:37:01;;;;;;;2.88;2.67;;;;;;;;;;5059729;28;20555;-71
2021/05/06 15:39:27;;;;;;;5.43;2.80;;;;;;;;;;5069087;28;20185;-71
2021/05/06 15:41:52;;;;;;;4.70;3.28;;;;;;;;;;5068887;28;20635;-70
2021/05/06 15:44:17;;;;;;;5.15;2.95;;;;;;;;;;5058907;28;20270;-71
2021/05/06 15:46:42;;;;;;;3.83;3.30;;;;;;;;;;5060999;28;20218;-71
2021/05/06 15:49:08;;;;;;;5.03;3.70;;;;;;;;;;5054873;28;20196;-71
2021/05/06 15:51:33;;;;;;;5.20;4.30;;;;;;;;;;5070863;28;20629;-71
2021/05/06 15:53:58;;;;;;;6.18;4.88;;;;;;;;;;5060528;28;20694;-69
2021/05/06 15:56:24;;;;;;;4.97;4.10;;;;;;;;;;5068685;28;20256;-70
2021/05/06 15:58:53;;;;;;;5.50;3.77;;;;;;;;;;5059964;28;20185;-71
2021/05/06 16:01:20;;;;;;;3.83;2.90;;;;;;;;;;5057488;28;20193;-73
2021/05/06 16:03:48;;;;;;;3.63;2.90;;;;;;;;;;5054859;28;20675;-71
2021/05/06 16:06:14;;;;;;;4.10;2.97;;;;;;;;;;5057747;28;20170;-72
2021/05/06 16:08:39;;;;;;;4.87;3.50;;;;;;;;;;5063126;28;20717;-72
2021/05/06 16:11:04;;;;;;;3.53;3.00;;;;;;;;;;5060525;28;20179;-72
2021/05/06 16:13:29;;;;;;;3.63;3.23;;;;;;;;;;5067879;28;20173;-72
2021/05/06 16:15:54;;;;;;;4.47;4.07;;;;;;;;;;5059332;28;20225;-72
2021/05/06 16:18:22;;;;;;;6.13;5.43;;;;;;;;;;5060273;28;20904;-72
2021/05/06 16:20:47;;;;;;;6.33;5.60;;;;;;;;;;5055340;28;20182;-72
2021/05/06 16:23:12;;;;;;;7.00;5.80;;;;;;;;;;5069036;28;20705;-72
2021/05/06 16:25:38;;;;;;;5.70;5.13;;;;;;;;;;5062713;28;20173;-72
2021/05/06 16:28:04;;;;;;;6.30;5.80;;;;;;;;;;5057753;28;20651;-72
2021/05/06 16:30:29;;;;;;;7.00;6.40;;;;;;;;;;5060154;28;20252;-72
2021/05/06 16:32:56;;;;;;;7.40;5.80;;;;;;;;;;5062518;28;20205;-72
2021/05/06 16:35:25;;;;;;;7.33;5.40;;;;;;;;;;5058069;28;20200;-72
2021/05/06 16:45:10;;;;;;;7.83;6.37;;;;;;;;;;5065099;28;20218;-71
2021/05/06 16:47:35;;;;;;;6.70;5.67;;;;;;;;;;5057854;28;20202;-71
2021/05/06 16:50:00;;;;;;;6.43;5.73;;;;;;;;;;5060166;28;20550;-70
2021/05/06 16:52:26;;;;;;;6.40;5.80;;;;;;;;;;5064604;28;20214;-71
2021/05/06 16:54:51;;;;;;;7.00;6.10;;;;;;;;;;5065313;28;20307;-70
2021/05/06 16:57:16;;;;;;;7.70;5.90;;;;;;;;;;5060452;28;20677;-71
2021/05/06 16:59:43;;;;;;;5.50;5.00;;;;;;;;;;5063753;28;20188;-71
2021/05/06 17:02:08;;;;;;;5.43;4.80;;;;;;;;;;5058607;28;20206;-71
2021/05/06 17:04:33;;;;;;;6.00;5.40;;;;;;;;;;5059952;28;20211;-69
2021/05/06 17:06:59;;;;;;;5.53;5.07;;;;;;;;;;5065115;28;20216;-72
2021/05/06 17:09:24;;;;;;;5.17;4.70;;;;;;;;;;5060536;28;20181;-71
2021/05/06 17:11:50;;;;;;;6.17;5.33;;;;;;;;;;5067083;28;20230;-71
2021/05/06 17:14:15;;;;;;;6.63;5.00;;;;;;;;;;5059829;28;20181;-71
2021/05/06 17:16:40;;;;;;;5.90;4.87;;;;;;;;;;5069875;28;20177;-72
2021/05/06 17:19:05;;;;;;;5.37;4.87;;;;;;;;;;5062879;28;20184;-71
2021/05/06 17:21:31;;;;;;;5.70;4.70;;;;;;;;;;5059002;28;20209;-71
2021/05/06 17:23:56;;;;;;;5.10;4.27;;;;;;;;;;5054934;28;20579;-72
2021/05/06 17:26:22;;;;;;;4.77;4.30;;;;;;;;;;5054658;28;20208;-70
2021/05/06 17:28:47;;;;;;;5.10;4.00;;;;;;;;;;5050468;28;20182;-69
2021/05/06 17:31:12;;;;;;;5.13;4.60;;;;;;;;;;5057828;28;20190;-71
2021/05/06 17:33:38;;;;;;;7.40;5.17;;;;;;;;;;5064321;28;20188;-71
2021/05/06 17:36:03;;;;;;;5.07;4.57;;;;;;;;;;5061901;28;20189;-71
2021/05/06 17:38:28;;;;;;;5.70;5.10;;;;;;;;;;5066374;28;20189;-71
2021/05/06 17:40:54;;;;;;;4.57;4.17;;;;;;;;;;5063507;28;20184;-71
2021/05/06 17:43:19;;;;;;;6.00;4.97;;;;;;;;;;5067253;28;20333;-69
2021/05/06 17:45:45;;;;;;;4.83;4.23;;;;;;;;;;5057934;28;20255;-71
2021/05/06 17:48:10;;;;;;;5.73;4.70;;;;;;;;;;5060904;28;20540;-71